createdAt,value
2023-01-22T00:00:39.975Z,79.23
2023-01-22T00:03:12.606Z,83.25
2023-01-22T00:05:44.130Z,79.95
2023-01-22T00:08:14.239Z,78.78
2023-01-22T00:10:51.108Z,83.90
2023-01-22T00:13:21.712Z,82.97
2023-01-22T00:15:51.974Z,82.63
2023-01-22T00:18:24.712Z,80.22
2023-01-22T00:20:56.449Z,83.90
2023-01-22T00:23:27.377Z,77.35
2023-01-22T00:28:34.197Z,76.95
2023-01-22T00:31:06.009Z,80.85
2023-01-22T00:33:38.751Z,80.18
2023-01-22T00:36:10.191Z,82.78
2023-01-22T00:38:40.419Z,78.65
2023-01-22T00:41:12.517Z,80.10
2023-01-22T00:43:43.134Z,85.78
2023-01-22T00:46:15.601Z,82.55
2023-01-22T00:48:49.687Z,83.18
2023-01-22T00:51:20.585Z,80.90
2023-01-22T00:56:20.428Z,81.55
2023-01-22T00:58:50.427Z,77.47
2023-01-22T01:01:20.895Z,78.43
2023-01-22T01:03:53.490Z,78.28
2023-01-22T01:06:25.014Z,75.95
2023-01-22T01:08:55.022Z,79.60
2023-01-22T01:11:26.441Z,80.23
2023-01-22T01:13:56.743Z,81.40
2023-01-22T01:16:29.837Z,77.65
2023-01-22T01:19:04.381Z,82.13
2023-01-22T01:21:35.394Z,84.57
2023-01-22T01:26:36.135Z,85.43
2023-01-22T01:29:10.044Z,86.65
2023-01-22T01:31:41.237Z,85.78
2023-01-22T01:34:14.157Z,82.88
2023-01-22T01:36:49.267Z,88.03
2023-01-22T01:39:20.445Z,94.28
2023-01-22T01:41:50.662Z,93.25
2023-01-22T01:44:23.096Z,94.80
2023-01-22T01:46:55.595Z,88.78
2023-01-22T01:49:32.986Z,86.68
2023-01-22T01:52:05.954Z,87.97
2023-01-22T01:54:36.893Z,87.70
2023-01-22T01:59:41.646Z,90.07
2023-01-22T02:02:11.964Z,84.88
2023-01-22T02:04:44.652Z,92.72
2023-01-22T02:07:14.714Z,91.07
2023-01-22T02:09:44.896Z,90.67
2023-01-22T02:12:15.173Z,92.35
2023-01-22T02:14:48.427Z,83.55
2023-01-22T02:17:21.882Z,93.10
2023-01-22T02:19:57.060Z,98.82
2023-01-22T02:22:32.649Z,93.50
2023-01-22T02:25:04.178Z,87.20
2023-01-22T02:27:34.238Z,95.38
2023-01-22T02:30:04.276Z,93.15
2023-01-22T02:32:34.364Z,87.70
2023-01-22T02:35:04.462Z,89.27
2023-01-22T02:37:37.697Z,107.57
2023-01-22T02:40:10.225Z,104.85
2023-01-22T02:42:40.397Z,105.70
2023-01-22T02:45:11.835Z,129.60
2023-01-22T02:47:41.869Z,89.25
2023-01-22T02:50:13.348Z,91.60
2023-01-22T02:52:46.258Z,93.35
2023-01-22T02:55:16.285Z,102.78
2023-01-22T02:57:46.404Z,101.40
2023-01-22T03:00:18.184Z,108.33
2023-01-22T03:02:48.368Z,101.82
2023-01-22T03:05:18.506Z,114.97
2023-01-22T03:07:51.232Z,118.55
2023-01-22T03:10:23.455Z,95.63
2023-01-22T03:13:05.848Z,103.97
2023-01-22T03:15:49.269Z,103.35
2023-01-22T03:18:32.062Z,103.55
2023-01-22T03:21:17.208Z,112.05
2023-01-22T03:23:53.363Z,101.35
2023-01-22T03:26:25.453Z,90.47
2023-01-22T03:28:55.544Z,88.63
2023-01-22T03:31:25.720Z,87.30
2023-01-22T03:33:55.905Z,90.10
2023-01-22T03:36:26.012Z,97.83
2023-01-22T03:39:03.751Z,107.35
2023-01-22T03:41:33.788Z,127.60
2023-01-22T03:44:04.227Z,124.63
2023-01-22T03:46:39.392Z,128.77
2023-01-22T03:49:10.013Z,130.82
2023-01-22T03:51:40.473Z,141.10
2023-01-22T03:54:14.293Z,110.32
2023-01-22T03:56:44.644Z,102.85
2023-01-22T03:59:24.149Z,92.93
2023-01-22T04:01:54.173Z,96.83
2023-01-22T04:04:25.057Z,91.97
2023-01-22T04:06:55.292Z,98.47
2023-01-22T04:09:28.819Z,84.28
2023-01-22T04:12:00.519Z,78.15
2023-01-22T04:14:30.977Z,81.07
2023-01-22T04:17:04.674Z,74.15
2023-01-22T04:19:52.598Z,77.75
2023-01-22T04:22:41.303Z,77.45
2023-01-22T04:25:16.584Z,74.63
2023-01-22T04:27:47.928Z,85.22
2023-01-22T04:30:21.226Z,85.10
2023-01-22T04:32:57.056Z,79.57
2023-01-22T04:35:34.261Z,81.57
2023-01-22T04:38:05.729Z,70.95
2023-01-22T04:40:42.097Z,83.40
2023-01-22T04:43:13.387Z,91.18
2023-01-22T04:45:43.630Z,76.80
2023-01-22T04:48:14.214Z,80.40
2023-01-22T04:50:46.889Z,74.72
2023-01-22T04:53:17.032Z,92.95
2023-01-22T04:55:49.793Z,82.93
2023-01-22T04:58:20.246Z,99.50
2023-01-22T05:00:50.371Z,79.93
2023-01-22T05:03:20.730Z,78.75
2023-01-22T05:05:51.083Z,69.53
2023-01-22T05:08:21.719Z,71.43
2023-01-22T05:10:54.396Z,75.37
2023-01-22T05:13:30.166Z,63.85
2023-01-22T05:16:00.540Z,74.20
2023-01-22T05:18:30.642Z,79.22
2023-01-22T05:21:01.775Z,59.50
2023-01-22T05:23:34.102Z,62.67
2023-01-22T05:26:07.588Z,59.20
2023-01-22T05:28:48.756Z,62.33
2023-01-22T05:31:41.487Z,64.22
2023-01-22T05:34:24.014Z,60.67
2023-01-22T05:39:25.917Z,64.13
2023-01-22T05:42:00.563Z,72.95
2023-01-22T05:44:33.351Z,70.88
2023-01-22T05:47:04.432Z,70.93
2023-01-22T05:49:46.680Z,74.38
2023-01-22T05:52:18.590Z,70.78
2023-01-22T05:54:48.781Z,70.15
2023-01-22T05:57:21.409Z,69.33
2023-01-22T05:59:52.702Z,62.85
2023-01-22T06:02:22.933Z,67.13
2023-01-22T06:04:55.593Z,60.97
2023-01-22T06:07:29.524Z,62.65
2023-01-22T06:09:59.677Z,59.97
2023-01-22T06:12:32.551Z,62.03
2023-01-22T06:15:02.536Z,66.28
2023-01-22T06:17:32.561Z,57.70
2023-01-22T06:20:05.819Z,60.13
2023-01-22T06:22:36.128Z,71.72
2023-01-22T06:25:09.029Z,63.30
2023-01-22T06:28:07.644Z,63.67
2023-01-22T06:30:38.790Z,62.50
2023-01-22T06:33:09.222Z,60.05
2023-01-22T06:35:39.372Z,64.00
2023-01-22T06:38:09.416Z,69.17
2023-01-22T06:40:39.993Z,74.15
2023-01-22T06:43:13.343Z,58.92
2023-01-22T06:45:44.102Z,67.68
2023-01-22T06:48:14.467Z,63.58
2023-01-22T06:50:44.477Z,66.22
2023-01-22T06:53:14.921Z,75.03
2023-01-22T06:55:45.123Z,81.47
2023-01-22T06:58:17.993Z,80.25
2023-01-22T07:00:48.115Z,85.65
2023-01-22T07:03:19.273Z,79.53
2023-01-22T07:05:49.361Z,80.38
2023-01-22T07:08:19.475Z,76.10
2023-01-22T07:10:49.633Z,84.53
2023-01-22T07:13:22.557Z,79.38
2023-01-22T07:15:52.967Z,79.63
2023-01-22T07:18:24.143Z,79.78
2023-01-22T07:20:54.516Z,76.85
2023-01-22T07:23:24.659Z,71.82
2023-01-22T07:25:55.240Z,64.68
2023-01-22T07:28:27.950Z,78.78
2023-01-22T07:31:00.327Z,75.22
2023-01-22T07:33:30.405Z,74.47
2023-01-22T07:36:00.985Z,70.05
2023-01-22T07:38:31.479Z,65.70
2023-01-22T07:41:09.100Z,49.53
2023-01-22T07:43:46.711Z,59.97
2023-01-22T07:46:16.860Z,63.85
2023-01-22T07:48:48.410Z,57.88
2023-01-22T07:51:18.517Z,50.47
2023-01-22T07:53:48.609Z,50.97
2023-01-22T07:56:19.389Z,44.70
2023-01-22T07:58:52.110Z,30.17
2023-01-22T08:01:22.211Z,30.98
2023-01-22T08:03:52.569Z,34.63
2023-01-22T08:06:23.557Z,31.63
2023-01-22T08:11:23.404Z,34.33
2023-01-22T08:13:56.548Z,34.17
2023-01-22T08:16:26.880Z,31.55
2023-01-22T08:18:56.969Z,30.83
2023-01-22T08:21:27.086Z,38.50
2023-01-22T08:23:57.220Z,33.70
2023-01-22T08:26:27.297Z,38.25
2023-01-22T08:29:01.934Z,39.70
2023-01-22T08:31:33.861Z,41.95
2023-01-22T08:34:04.340Z,48.70
2023-01-22T08:36:34.452Z,36.30
2023-01-22T08:39:04.455Z,32.43
2023-01-22T08:41:34.640Z,34.17
2023-01-22T08:44:07.502Z,36.55
2023-01-22T08:46:40.657Z,39.15
2023-01-22T08:49:10.799Z,39.42
2023-01-22T08:51:40.855Z,41.05
2023-01-22T08:54:10.953Z,42.43
2023-01-22T08:56:41.005Z,41.73
2023-01-22T08:59:13.724Z,37.47
2023-01-22T09:01:44.219Z,46.70
2023-01-22T09:04:14.410Z,44.08
2023-01-22T09:06:44.564Z,51.33
2023-01-22T09:09:15.806Z,54.55
2023-01-22T09:11:47.185Z,50.75
2023-01-22T09:14:19.982Z,50.63
2023-01-22T09:16:50.245Z,51.40
2023-01-22T09:19:20.627Z,55.15
2023-01-22T09:21:50.907Z,55.28
2023-01-22T09:24:20.915Z,59.28
2023-01-22T09:26:57.017Z,53.63
2023-01-22T09:29:29.720Z,61.90
2023-01-22T09:32:00.501Z,54.20
2023-01-22T09:34:30.821Z,43.75
2023-01-22T09:37:02.868Z,38.33
2023-01-22T09:39:32.930Z,40.95
2023-01-22T09:42:06.599Z,38.97
2023-01-22T09:44:42.585Z,43.75
2023-01-22T09:47:17.872Z,35.25
2023-01-22T09:49:57.129Z,38.30
2023-01-22T09:52:31.460Z,36.65
2023-01-22T09:55:01.789Z,44.50
2023-01-22T09:57:32.625Z,45.55
2023-01-22T10:00:06.563Z,48.20
2023-01-22T10:02:47.037Z,52.72
2023-01-22T10:05:26.030Z,59.90
2023-01-22T10:08:03.917Z,56.42
2023-01-22T10:10:36.157Z,55.55
2023-01-22T10:13:18.270Z,47.60
2023-01-22T10:15:52.580Z,46.15
2023-01-22T10:18:31.989Z,44.33
2023-01-22T10:21:06.289Z,48.20
2023-01-22T10:23:37.433Z,42.25
2023-01-22T10:26:15.890Z,45.25
2023-01-22T10:28:48.413Z,48.80
2023-01-22T10:31:41.223Z,53.53
2023-01-22T10:34:16.818Z,50.35
2023-01-22T10:36:53.065Z,52.03
2023-01-22T10:39:23.779Z,58.75
2023-01-22T10:41:54.005Z,67.25
2023-01-22T10:44:26.541Z,74.82
2023-01-22T10:47:18.426Z,74.50
2023-01-22T10:49:48.516Z,71.60
2023-01-22T10:52:26.659Z,70.27
2023-01-22T10:55:03.311Z,76.90
2023-01-22T10:57:36.213Z,71.82
2023-01-22T11:00:24.842Z,68.10
2023-01-22T11:02:57.760Z,67.20
2023-01-22T11:05:30.383Z,66.20
2023-01-22T11:08:03.370Z,66.20
2023-01-22T11:10:42.705Z,66.47
2023-01-22T11:13:18.518Z,71.90
2023-01-22T11:15:54.092Z,67.35
2023-01-22T11:18:34.760Z,65.95
2023-01-22T11:21:08.371Z,72.93
2023-01-22T11:23:48.077Z,68.90
2023-01-22T11:26:25.561Z,67.30
2023-01-22T11:29:05.627Z,65.85
2023-01-22T11:31:48.605Z,67.22
2023-01-22T11:34:37.031Z,85.00
2023-01-22T11:37:14.410Z,79.43
2023-01-22T11:39:59.541Z,81.00
2023-01-22T11:42:41.523Z,80.00
2023-01-22T11:45:28.911Z,75.47
2023-01-22T11:48:12.105Z,72.07
2023-01-22T11:50:49.374Z,66.80
2023-01-22T11:53:37.851Z,76.47
2023-01-22T11:56:24.847Z,71.45
2023-01-22T11:58:59.981Z,78.03
2023-01-22T12:01:43.500Z,77.05
2023-01-22T12:04:48.802Z,69.40
2023-01-22T12:07:56.033Z,76.65
2023-01-22T12:10:46.677Z,83.25
2023-01-22T12:13:32.993Z,84.30
2023-01-22T12:16:11.160Z,89.55
2023-01-22T12:19:16.643Z,81.97
2023-01-22T12:21:59.360Z,87.13
2023-01-22T12:24:36.432Z,82.40
2023-01-22T12:27:12.319Z,92.75
2023-01-22T12:29:46.648Z,87.60
2023-01-22T12:32:19.310Z,77.97
2023-01-22T12:34:56.573Z,82.97
2023-01-22T12:37:32.769Z,72.60
2023-01-22T12:40:25.347Z,82.15
2023-01-22T12:43:02.429Z,71.50
2023-01-22T12:45:43.445Z,76.00
2023-01-22T12:48:26.239Z,74.85
2023-01-22T12:50:58.358Z,80.65
2023-01-22T12:53:31.005Z,78.97
2023-01-22T12:56:06.245Z,74.10
2023-01-22T12:58:38.031Z,72.15
2023-01-22T13:01:24.303Z,74.03
2023-01-22T13:04:02.655Z,83.20
2023-01-22T13:06:39.117Z,71.82
2023-01-22T13:09:24.931Z,74.90
2023-01-22T13:11:57.772Z,75.43
2023-01-22T13:14:31.322Z,74.18
2023-01-22T13:17:05.494Z,73.68
2023-01-22T13:19:43.836Z,61.72
2023-01-22T13:22:21.134Z,72.47
2023-01-22T13:24:57.065Z,57.58
2023-01-22T13:27:33.478Z,59.67
2023-01-22T13:30:11.484Z,58.33
2023-01-22T13:32:43.827Z,61.45
2023-01-22T13:35:18.289Z,61.75
2023-01-22T13:37:54.564Z,52.78
2023-01-22T13:40:27.958Z,51.38
2023-01-22T13:43:02.557Z,53.08
2023-01-22T13:45:34.901Z,49.47
2023-01-22T13:48:07.011Z,55.35
2023-01-22T13:50:40.315Z,47.22
2023-01-22T13:53:21.885Z,49.40
2023-01-22T13:55:52.631Z,47.17
2023-01-22T13:58:54.060Z,50.38
2023-01-22T14:01:32.695Z,45.08
2023-01-22T14:04:04.365Z,45.72
2023-01-22T14:06:47.552Z,54.20
2023-01-22T14:09:28.659Z,51.47
2023-01-22T18:35:10.192Z,119.82
2023-01-22T18:37:40.520Z,105.47
2023-01-22T18:40:13.027Z,114.22
2023-01-22T18:42:43.587Z,130.60
2023-01-22T18:45:14.900Z,109.50
2023-01-22T18:47:45.310Z,114.07
2023-01-22T18:50:18.346Z,164.02
2023-01-22T18:52:49.434Z,120.78
2023-01-22T18:55:21.899Z,114.70
2023-01-22T18:58:21.655Z,106.30
2023-01-22T19:00:51.907Z,104.72
2023-01-22T19:03:21.945Z,111.03
2023-01-22T19:05:55.618Z,119.57
2023-01-22T19:08:26.262Z,101.40
2023-01-22T19:10:56.467Z,93.15
2023-01-22T19:13:26.578Z,96.90
2023-01-22T19:15:56.754Z,100.40
2023-01-22T19:18:29.368Z,104.10
2023-01-22T19:21:05.994Z,103.30
2023-01-22T19:23:37.340Z,107.72
2023-01-22T19:26:10.950Z,115.45
2023-01-22T19:28:41.843Z,127.20
2023-01-22T19:31:18.626Z,121.20
2023-01-22T19:33:49.389Z,116.97
2023-01-22T19:36:23.836Z,126.32
2023-01-22T19:38:53.956Z,99.72
2023-01-22T19:41:24.604Z,118.77
2023-01-22T19:43:55.302Z,109.28
2023-01-22T19:46:26.228Z,108.68
2023-01-22T19:51:30.952Z,94.68
2023-01-22T19:54:04.768Z,92.60
2023-01-22T19:56:38.029Z,85.38
2023-01-22T19:59:10.242Z,92.05
2023-01-22T20:01:40.534Z,81.07
2023-01-22T20:04:14.538Z,80.60
2023-01-22T20:06:50.993Z,79.97
2023-01-22T20:09:22.132Z,82.30
2023-01-22T20:11:53.939Z,94.53
2023-01-22T20:14:24.480Z,90.18
2023-01-22T20:16:54.948Z,104.05
2023-01-22T20:19:25.159Z,97.38
2023-01-22T20:21:58.298Z,100.10
2023-01-22T20:24:28.667Z,107.57
2023-01-22T20:26:59.293Z,110.07
2023-01-22T20:29:29.461Z,124.05
2023-01-22T20:31:59.774Z,111.35
2023-01-22T20:34:29.980Z,99.55
2023-01-22T20:37:03.148Z,98.78
2023-01-22T20:39:33.314Z,110.68
2023-01-22T20:42:03.466Z,106.43
2023-01-22T20:44:35.103Z,108.45
2023-01-22T20:47:05.179Z,115.72
2023-01-22T20:49:37.246Z,111.00
2023-01-22T20:52:09.870Z,119.38
2023-01-22T20:54:50.039Z,109.32
2023-01-22T20:57:30.180Z,102.07
2023-01-22T21:00:00.447Z,103.57
2023-01-22T21:02:30.636Z,116.38
2023-01-22T21:05:00.776Z,126.33
2023-01-22T21:07:33.577Z,122.77
2023-01-22T21:10:03.705Z,145.65
2023-01-22T21:12:33.734Z,132.77
2023-01-22T21:15:04.092Z,136.30
2023-01-22T21:17:34.971Z,133.63
2023-01-22T21:20:06.301Z,129.35
2023-01-22T21:22:39.040Z,140.18
2023-01-22T21:25:09.842Z,140.75
2023-01-22T21:27:40.426Z,134.23
2023-01-22T21:30:12.199Z,148.63
2023-01-22T21:32:42.297Z,141.68
2023-01-22T21:35:12.948Z,153.40
2023-01-22T21:37:45.781Z,144.95
2023-01-22T21:40:16.423Z,146.02
2023-01-22T21:42:59.451Z,145.40
2023-01-22T21:45:42.209Z,171.32
2023-01-22T21:48:12.461Z,145.40
2023-01-22T21:50:43.699Z,142.07
2023-01-22T21:53:16.507Z,144.52
2023-01-22T21:55:53.273Z,183.25
2023-01-22T21:58:23.852Z,141.82
2023-01-22T22:00:54.934Z,174.02
2023-01-22T22:03:25.529Z,248.32
2023-01-22T22:06:02.090Z,163.65
2023-01-22T22:08:35.727Z,171.20
2023-01-22T22:11:06.565Z,160.05
2023-01-22T22:13:38.064Z,152.73
2023-01-22T22:16:11.063Z,120.32
2023-01-22T22:18:41.413Z,232.18
2023-01-22T22:21:11.936Z,140.00
2023-01-22T22:23:45.351Z,167.82
2023-01-22T22:26:15.432Z,139.48
2023-01-22T22:28:45.681Z,170.27
2023-01-22T22:31:18.290Z,200.38
2023-01-22T22:33:50.580Z,200.52
2023-01-22T22:36:23.024Z,155.85
2023-01-22T22:38:56.302Z,149.65
2023-01-22T22:41:28.757Z,155.68
2023-01-22T22:43:59.478Z,186.15
2023-01-22T22:46:31.989Z,167.05
2023-01-22T22:49:05.562Z,136.27
2023-01-22T22:51:37.558Z,129.23
2023-01-22T22:54:15.218Z,231.10
2023-01-22T22:56:46.017Z,124.28
2023-01-22T22:59:18.767Z,111.53
2023-01-22T23:01:48.953Z,150.32
2023-01-22T23:04:19.530Z,182.10
2023-01-22T23:06:50.188Z,184.18
2023-01-22T23:09:23.924Z,166.43
2023-01-22T23:11:56.247Z,192.20
2023-01-22T23:14:26.433Z,178.75
2023-01-22T23:16:56.563Z,182.75
2023-01-22T23:19:29.124Z,112.90
2023-01-22T23:22:01.725Z,161.07
2023-01-22T23:24:34.444Z,130.23
2023-01-22T23:27:04.635Z,107.22
2023-01-22T23:29:35.588Z,121.00
2023-01-22T23:34:35.344Z,122.13
2023-01-22T23:37:05.523Z,159.87
2023-01-22T23:39:38.723Z,93.57
2023-01-22T23:42:10.547Z,100.95
2023-01-22T23:44:40.772Z,74.57
2023-01-22T23:47:10.835Z,74.00
2023-01-22T23:49:41.651Z,66.70
2023-01-22T23:52:11.751Z,74.22
2023-01-22T23:54:44.497Z,66.50
2023-01-22T23:57:14.604Z,68.80
2023-01-22T23:59:44.839Z,66.97
